Happy Valentine's Day! 

Flight Track Log - Related Links

Times and Time Zones

All times are in EDT time to prevent confusion due to time zone crossing. See the WBR2705 flight status page for this flight to view local times or setup timezone preferences in your user account.


Time Position Orientation Groundspeed Altitude Reporting Facility
EDT Latitude Longitude Course Direction KTS MPH feet Rate Location/Type
Fri 04:34:11 PM 38.7667 -90.4167 175° South 89 102 1,200  Level Gateway (St. Louis) TRACON
Fri 04:35:11 PM 38.7500 -90.4500 237° Southwest 125 144 1,800 750 Climbing Gateway (St. Louis) TRACON
Fri 04:36:11 PM 38.7167 -90.4500 180° South 122 140 2,700 1,000 Climbing Gateway (St. Louis) TRACON
Fri 04:37:05 PM 38.6833 -90.4500 180° South 91 105 3,700 684 Climbing Gateway (St. Louis) TRACON
Fri 04:38:05 PM 38.6667 -90.4500 180° South 101 116 4,000 550 Climbing Gateway (St. Louis) TRACON
Fri 04:39:00 PM 38.6048 -90.3339 175° South  Level FlightAware Approximate
Fri 04:39:05 PM 38.6333 -90.4500 180° South 88 101 4,800  Level Gateway (St. Louis) TRACON
Fri 04:39:20 PM 38.6342 -90.4539 285° West 97 112 5,000 769 Climbing Kansas City Center
Fri 04:40:23 PM 38.6081 -90.4569 185° South 87 100 5,800 672 Climbing Kansas City Center
Fri 04:41:25 PM 38.5889 -90.4514 167° South 75 86 6,400 581 Climbing Kansas City Center
Fri 04:42:27 PM 38.5672 -90.4458 169° South 77 89 7,000 532 Climbing Kansas City Center
Fri 04:43:29 PM 38.5467 -90.4406 169° South 77 89 7,500 484 Climbing Kansas City Center
Fri 04:44:31 PM 38.5258 -90.4333 165° South 77 89 8,000 290 Climbing Kansas City Center
Fri 04:45:33 PM 38.4961 -90.4256 168° South 84 97 8,100 48 Climbing Kansas City Center
Fri 04:46:35 PM 38.4689 -90.4161 165° South 94 108 8,100 -48 Level Kansas City Center
Fri 04:47:37 PM 38.4417 -90.4075 166° South 99 114 8,000 -48 Descending Kansas City Center
Fri 04:48:39 PM 38.4142 -90.3978 165° South 101 116 8,000  Level Kansas City Center
Fri 04:49:41 PM 38.3875 -90.3889 165° South 100 115 8,000  Level Kansas City Center
Fri 04:50:43 PM 38.3614 -90.3803 166° South 99 114 8,000  Level Kansas City Center
Fri 04:51:45 PM 38.3294 -90.3697 165° South 98 113 8,000  Level Kansas City Center
Fri 04:52:47 PM 38.3033 -90.3606 165° South 99 114 8,000  Level Kansas City Center
Fri 04:53:49 PM 38.2769 -90.3522 166° South 98 113 8,000  Level Kansas City Center
Fri 04:54:51 PM 38.2508 -90.3428 164° South 98 113 8,000  Level Kansas City Center
Fri 04:55:53 PM 38.2242 -90.3350 167° South 98 113 8,000  Level Kansas City Center
Fri 04:56:55 PM 38.1931 -90.3228 163° South 99 114 8,000  Level Kansas City Center
Fri 04:57:57 PM 38.1650 -90.3142 166° South 101 116 8,000  Level Kansas City Center
Fri 04:58:59 PM 38.1397 -90.3050 164° South 98 113 8,000  Level Kansas City Center
Fri 05:00:01 PM 38.1139 -90.2972 167° South 96 110 8,000  Level Kansas City Center
Fri 05:01:03 PM 38.0875 -90.2894 167° South 96 110 8,000  Level Kansas City Center
Fri 05:02:05 PM 38.0628 -90.2800 163° South 95 109 8,000  Level Kansas City Center
Fri 05:03:07 PM 38.0300 -90.2747 173° South 99 114 8,000  Level Kansas City Center
Fri 05:04:09 PM 38.0014 -90.2708 174° South 102 117 8,000  Level Kansas City Center
Fri 05:05:11 PM 37.9733 -90.2678 175° South 102 117 8,000  Level Kansas City Center
Fri 05:06:13 PM 37.9450 -90.2647 175° South 102 117 8,000  Level Kansas City Center
Fri 05:07:15 PM 37.9172 -90.2614 175° South 101 116 8,000  Level Kansas City Center
Fri 05:08:17 PM 37.8886 -90.2589 176° South 103 119 8,000  Level Kansas City Center
Fri 05:09:19 PM 37.8536 -90.2556 176° South 106 122 8,000  Level Kansas City Center
Fri 05:10:22 PM 37.8261 -90.2500 171° South 100 115 8,000  Level Kansas City Center
Fri 05:11:24 PM 37.7978 -90.2489 178° South 101 116 8,000  Level Kansas City Center
Fri 05:12:26 PM 37.7703 -90.2467 176° South 99 114 8,000  Level Kansas City Center
Fri 05:13:28 PM 37.7442 -90.2442 176° South 97 112 8,000  Level Kansas City Center
Fri 05:14:30 PM 37.7183 -90.2392 171° South 94 108 8,000  Level Kansas City Center
Fri 05:15:32 PM 37.6850 -90.2361 176° South 98 113 8,000  Level Kansas City Center
Fri 05:17:00 PM 37.6400 -90.2391 190° South  Level FlightAware Approximate
Fri 05:17:36 PM 37.6275 -90.2447 190° South 104 120 8,000  Level Kansas City Center
Fri 05:18:38 PM 37.5981 -90.2497 188° South 105 121 8,000  Level Kansas City Center
Fri 05:19:40 PM 37.5681 -90.2561 190° South 108 124 8,000  Level Kansas City Center
Fri 05:20:42 PM 37.5361 -90.2639 191° South 113 130 8,000  Level Kansas City Center
Fri 05:21:44 PM 37.4994 -90.2725 191° South 112 129 8,000  Level Kansas City Center
Fri 05:22:46 PM 37.4678 -90.2811 192° South 114 131 8,000  Level Kansas City Center
Fri 05:23:48 PM 37.4358 -90.2886 191° South 117 135 8,000  Level Kansas City Center
Fri 05:24:50 PM 37.4019 -90.2958 190° South 120 138 8,000  Level Kansas City Center
Fri 05:25:52 PM 37.3725 -90.3017 189° South 112 129 8,000  Level Kansas City Center
Fri 05:26:08 PM 37.3569 -90.3072 196° South 123 142 8,000  Level Memphis Center
Fri 05:27:08 PM 37.3278 -90.3178 196° South 123 142 8,000  Level Memphis Center
Fri 05:28:08 PM 37.2944 -90.3231 187° South 123 142 8,000  Level Memphis Center
Fri 05:29:08 PM 37.2631 -90.3308 191° South 123 142 8,000  Level Memphis Center
Fri 05:30:08 PM 37.2361 -90.3333 184° South 123 142 8,000  Level Memphis Center
Fri 05:31:08 PM 37.2028 -90.3439 194° South 123 142 8,000  Level Memphis Center
Fri 05:32:08 PM 37.1756 -90.3464 184° South 118 136 8,000  Level Memphis Center
Fri 05:33:08 PM 37.1444 -90.3569 195° South 118 136 8,000  Level Memphis Center
Fri 05:34:08 PM 37.1131 -90.3647 191° South 118 136 8,000  Level Memphis Center
Fri 05:35:08 PM 37.0819 -90.3700 188° South 118 136 8,000  Level Memphis Center
Fri 05:36:08 PM 37.0528 -90.3778 192° South 118 136 8,000  Level Memphis Center
Fri 05:37:08 PM 37.0256 -90.3828 188° South 118 136 8,000 50 Level Memphis Center
Fri 05:38:08 PM 36.9922 -90.3906 191° South 118 136 8,100  Climbing Memphis Center
Fri 05:39:08 PM 36.9569 -90.4011 193° South 125 144 8,000 -50 Descending Memphis Center
Fri 05:40:08 PM 36.9256 -90.4061 187° South 125 144 8,000  Level Memphis Center
Fri 05:41:08 PM 36.8944 -90.4114 188° South 120 138 8,000  Level Memphis Center
Fri 05:42:08 PM 36.8611 -90.4192 191° South 126 145 8,000  Level Memphis Center
Fri 05:43:08 PM 36.8297 -90.4269 191° South 121 139 8,000  Level Memphis Center
Fri 05:44:08 PM 36.7986 -90.4347 191° South 126 145 8,000  Level Memphis Center
Fri 05:45:08 PM 36.7653 -90.4425 191° South 121 139 8,000  Level Memphis Center
Fri 05:46:08 PM 36.7319 -90.4475 187° South 126 145 8,000  Level Memphis Center
Fri 05:47:08 PM 36.6983 -90.4553 191° South 126 145 8,000  Level Memphis Center
Fri 05:48:08 PM 36.6672 -90.4631 191° South 126 145 8,000 50 Level Memphis Center
Fri 05:49:08 PM 36.6317 -90.4733 193° South 126 145 8,100  Climbing Memphis Center
Fri 05:50:08 PM 36.5964 -90.4783 186° South 126 145 8,000 -50 Descending Memphis Center
Fri 05:51:08 PM 36.5650 -90.4836 188° South 126 145 8,000  Level Memphis Center
Fri 05:52:08 PM 36.5275 -90.4939 192° South 126 145 8,000 -200 Level Memphis Center
Fri 05:53:08 PM 36.4942 -90.5014 190° South 126 145 7,600 -450 Descending Memphis Center
Fri 05:54:08 PM 36.4567 -90.5117 192° South 131 151 7,100 -450 Descending Memphis Center
Fri 05:55:08 PM 36.4128 -90.5194 188° South 146 168 6,700 -400 Descending Memphis Center
Fri 05:56:08 PM 36.3711 -90.5297 191° South 156 180 6,300 -400 Descending Memphis Center
Fri 05:57:08 PM 36.3317 -90.5372 189° South 163 188 5,900 -400 Descending Memphis Center
Fri 05:58:08 PM 36.2897 -90.5475 191° South 157 181 5,500 -400 Descending Memphis Center
Fri 05:59:08 PM 36.2522 -90.5294 159° South 152 175 5,100 -400 Descending Memphis Center
Fri 06:00:08 PM 36.2128 -90.5114 160° South 152 175 4,700 -400 Descending Memphis Center
Fri 06:01:08 PM 36.1711 -90.4933 161° South 152 175 4,300 -400 Descending Memphis Center
Fri 06:02:08 PM 36.1294 -90.4803 166° South 152 175 3,900 -450 Descending Memphis Center
Fri 06:03:08 PM 36.0878 -90.4622 161° South 157 181 3,400 -450 Descending Memphis Center
Fri 06:04:08 PM 36.0419 -90.4597 177° South 163 188 3,000 -400 Descending Memphis Center
Fri 06:05:08 PM 35.9958 -90.4597 180° South 155 178 2,600 -350 Descending Memphis Center
Fri 06:06:08 PM 35.9564 -90.4800 203° Southwest 155 178 2,300 -150 Descending Memphis Center
Fri 06:07:08 PM 35.9228 -90.5083 214° Southwest 150 173 2,300  Level Memphis Center
Fri 06:08:08 PM 35.9000 -90.5414 230° Southwest 140 161 2,300 -200 Level Memphis Center
Fri 06:09:08 PM 35.8833 -90.5672 231° Southwest 134 154 1,900 -400 Descending Memphis Center

Login

Don't have an account? Register now (free) for customized features, flight alerts, and more!